createdAt,value
2017-05-23T00:01:47.014Z,14.70
2017-05-23T00:04:15.331Z,14.70
2017-05-23T00:06:43.655Z,14.70
2017-05-23T00:09:11.996Z,14.80
2017-05-23T00:11:40.306Z,14.80
2017-05-23T00:14:08.635Z,14.70
2017-05-23T00:16:36.942Z,14.70
2017-05-23T00:19:05.282Z,14.70
2017-05-23T00:21:33.592Z,14.70
2017-05-23T00:24:01.927Z,14.70
2017-05-23T00:26:31.817Z,14.60
2017-05-23T00:29:00.218Z,14.60
2017-05-23T00:31:28.560Z,14.50
2017-05-23T00:33:56.874Z,14.40
2017-05-23T00:36:25.270Z,14.20
2017-05-23T00:38:53.575Z,14.20
2017-05-23T00:41:21.886Z,14.10
2017-05-23T00:43:50.190Z,14.20
2017-05-23T00:46:18.507Z,14.20
2017-05-23T00:48:46.859Z,14.10
2017-05-23T00:51:15.179Z,14.20
2017-05-23T00:53:43.699Z,14.40
2017-05-23T00:56:12.099Z,14.40
2017-05-23T00:58:40.479Z,14.40
2017-05-23T01:01:08.858Z,14.50
2017-05-23T01:03:37.240Z,14.60
2017-05-23T01:06:05.559Z,14.60
2017-05-23T01:08:33.875Z,14.70
2017-05-23T01:11:02.179Z,14.70
2017-05-23T01:13:30.486Z,14.70
2017-05-23T01:15:58.803Z,14.70
2017-05-23T01:18:27.111Z,14.70
2017-05-23T01:20:55.440Z,14.70
2017-05-23T01:23:23.763Z,14.60
2017-05-23T01:25:52.146Z,14.60
2017-05-23T01:28:20.454Z,14.60
2017-05-23T01:30:55.247Z,14.60
2017-05-23T01:33:23.924Z,14.60
2017-05-23T01:35:52.226Z,14.60
2017-05-23T01:38:20.601Z,14.60
2017-05-23T01:40:48.906Z,14.70
2017-05-23T01:43:17.228Z,14.70
2017-05-23T01:45:45.531Z,14.70
2017-05-23T01:48:13.835Z,14.80
2017-05-23T01:50:42.146Z,14.80
2017-05-23T01:53:10.464Z,14.80
2017-05-23T01:55:38.859Z,14.80
2017-05-23T01:58:07.232Z,14.80
2017-05-23T02:00:35.610Z,14.80
2017-05-23T02:03:03.923Z,14.80
2017-05-23T02:05:32.243Z,14.90
2017-05-23T02:08:00.555Z,14.90
2017-05-23T02:10:28.920Z,14.90
2017-05-23T02:12:57.299Z,14.90
2017-05-23T02:15:25.675Z,14.90
2017-05-23T02:17:53.994Z,14.80
2017-05-23T02:20:22.304Z,14.90
2017-05-23T02:22:50.615Z,14.90
2017-05-23T02:25:18.999Z,14.80
2017-05-23T02:27:47.380Z,14.80
2017-05-23T02:30:15.695Z,14.70
2017-05-23T02:32:44.032Z,14.80
2017-05-23T02:35:12.342Z,14.70
2017-05-23T02:37:40.655Z,14.70
2017-05-23T02:40:08.970Z,14.70
2017-05-23T02:42:37.346Z,14.70
2017-05-23T02:45:05.656Z,14.70
2017-05-23T02:47:34.011Z,14.50
2017-05-23T02:50:02.314Z,14.50
2017-05-23T02:52:30.655Z,14.50
2017-05-23T02:54:58.969Z,14.50
2017-05-23T02:57:27.323Z,14.50
2017-05-23T02:59:55.698Z,14.40
2017-05-23T03:02:24.002Z,14.50
2017-05-23T03:04:52.362Z,14.50
2017-05-23T03:07:20.743Z,14.40
2017-05-23T03:09:49.052Z,14.40
2017-05-23T03:12:17.367Z,14.20
2017-05-23T03:14:59.531Z,14.20
2017-05-23T03:17:28.898Z,14.20
2017-05-23T03:19:57.279Z,14.20
2017-05-23T03:22:25.592Z,14.20
2017-05-23T03:24:53.943Z,14.20
2017-05-23T03:27:22.319Z,14.30
2017-05-23T03:29:50.622Z,14.30
2017-05-23T03:32:18.975Z,14.30
2017-05-23T03:34:47.283Z,14.40
2017-05-23T03:37:15.610Z,14.40
2017-05-23T03:39:43.918Z,14.40
2017-05-23T03:42:12.267Z,14.50
2017-05-23T03:44:41.446Z,14.50
2017-05-23T03:47:09.859Z,14.60
2017-05-23T03:49:38.246Z,14.60
2017-05-23T03:52:06.559Z,14.60
2017-05-23T03:54:34.872Z,14.70
2017-05-23T03:57:03.326Z,14.70
2017-05-23T03:59:31.655Z,14.80
2017-05-23T04:02:00.045Z,14.80
2017-05-23T04:04:28.440Z,14.80
2017-05-23T04:06:56.754Z,14.90
2017-05-23T04:09:25.199Z,15.00
2017-05-23T04:11:53.567Z,15.00
2017-05-23T04:14:21.955Z,15.00
2017-05-23T04:16:50.267Z,15.00
2017-05-23T04:19:18.615Z,15.00
2017-05-23T04:21:46.925Z,15.00
2017-05-23T04:24:15.249Z,15.00
2017-05-23T04:26:43.582Z,15.10
2017-05-23T04:29:11.890Z,15.00
2017-05-23T04:31:40.298Z,15.00
2017-05-23T04:34:08.607Z,15.10
2017-05-23T04:36:37.061Z,15.10
2017-05-23T04:39:05.530Z,15.10
2017-05-23T04:41:33.926Z,15.20
2017-05-23T04:44:02.253Z,15.20
2017-05-23T04:46:31.213Z,15.20
2017-05-23T04:48:59.857Z,15.20
2017-05-23T04:51:28.925Z,15.20
2017-05-23T04:53:57.257Z,15.30
2017-05-23T04:56:25.562Z,15.20
2017-05-23T04:58:53.924Z,15.20
2017-05-23T05:01:22.302Z,15.20
2017-05-23T05:03:50.634Z,15.30
2017-05-23T05:06:18.944Z,15.30
2017-05-23T05:08:47.338Z,15.30
2017-05-23T05:11:15.651Z,15.30
2017-05-23T05:13:43.964Z,15.30
2017-05-23T05:16:12.305Z,15.40
2017-05-23T05:18:40.607Z,15.50
2017-05-23T05:21:09.039Z,15.60
2017-05-23T05:23:37.351Z,15.70
2017-05-23T05:26:05.655Z,15.80
2017-05-23T05:28:33.967Z,15.90
2017-05-23T05:31:02.350Z,16.10
2017-05-23T05:33:30.722Z,16.40
2017-05-23T05:35:59.056Z,16.50
2017-05-23T05:38:27.788Z,16.60
2017-05-23T05:40:56.098Z,16.50
2017-05-23T05:43:24.820Z,16.70
2017-05-23T05:45:53.122Z,17.30
2017-05-23T05:48:21.438Z,18.10
2017-05-23T05:50:49.747Z,18.90
2017-05-23T05:53:18.066Z,19.10
2017-05-23T05:55:46.402Z,18.90
2017-05-23T05:58:14.732Z,19.00
2017-05-23T06:00:43.063Z,18.90
2017-05-23T06:03:11.375Z,18.40
2017-05-23T06:05:39.762Z,19.00
2017-05-23T06:08:08.067Z,19.40
2017-05-23T06:10:36.423Z,20.50
2017-05-23T06:13:22.263Z,20.20
2017-05-23T06:15:50.678Z,21.10
2017-05-23T06:18:19.072Z,22.30
2017-05-23T06:20:47.410Z,23.00
2017-05-23T06:23:15.716Z,23.00
2017-05-23T06:25:44.115Z,23.50
2017-05-23T06:28:12.427Z,24.10
2017-05-23T06:30:40.738Z,24.30
2017-05-23T06:33:09.147Z,25.50
2017-05-23T06:35:37.527Z,25.30
2017-05-23T06:38:05.858Z,25.80
2017-05-23T06:40:34.181Z,25.50
2017-05-23T06:43:02.571Z,25.50
2017-05-23T06:45:30.943Z,26.10
2017-05-23T06:47:59.331Z,26.20
2017-05-23T06:50:35.178Z,26.20
2017-05-23T06:53:03.554Z,25.70
2017-05-23T06:55:31.940Z,26.60
2017-05-23T06:58:00.321Z,26.80
2017-05-23T07:00:28.622Z,26.20
2017-05-23T07:02:56.983Z,26.10
2017-05-23T07:05:25.315Z,26.30
2017-05-23T07:07:53.635Z,26.40
2017-05-23T07:10:22.013Z,26.90
2017-05-23T07:12:50.395Z,27.00
2017-05-23T07:15:18.771Z,27.30
2017-05-23T07:17:47.082Z,27.30
2017-05-23T07:20:15.386Z,27.20
2017-05-23T07:22:43.716Z,27.10
2017-05-23T07:25:12.023Z,28.00
2017-05-23T07:27:40.376Z,27.90
2017-05-23T07:30:08.750Z,28.20
2017-05-23T07:32:37.081Z,28.20
2017-05-23T07:35:05.414Z,28.00
2017-05-23T07:37:33.793Z,27.90
2017-05-23T07:40:02.109Z,27.60
2017-05-23T07:42:30.446Z,27.60
2017-05-23T07:44:58.757Z,27.70
2017-05-23T07:47:27.064Z,26.80
2017-05-23T07:49:55.394Z,27.30
2017-05-23T07:52:23.700Z,28.10
2017-05-23T07:54:52.035Z,27.10
2017-05-23T07:57:20.414Z,26.80
2017-05-23T07:59:48.794Z,27.50
2017-05-23T08:02:17.099Z,26.20
2017-05-23T08:04:45.450Z,26.70
2017-05-23T08:07:13.830Z,26.50
2017-05-23T08:09:42.143Z,26.40
2017-05-23T08:12:10.451Z,25.90
2017-05-23T08:14:38.767Z,26.80
2017-05-23T08:17:07.072Z,27.90
2017-05-23T08:19:35.433Z,28.60
2017-05-23T08:22:03.738Z,27.80
2017-05-23T08:24:32.079Z,26.60
2017-05-23T08:27:00.463Z,26.00
2017-05-23T08:29:28.851Z,25.90
2017-05-23T08:31:57.162Z,25.50
2017-05-23T08:34:25.471Z,25.80
2017-05-23T08:36:53.779Z,25.80
2017-05-23T08:39:22.087Z,26.50
2017-05-23T08:41:50.394Z,27.30
2017-05-23T08:44:18.728Z,27.30
2017-05-23T08:46:47.039Z,27.80
2017-05-23T08:49:15.379Z,27.90
2017-05-23T08:51:43.746Z,28.40
2017-05-23T08:54:12.134Z,28.40
2017-05-23T08:56:40.511Z,28.80
2017-05-23T08:59:08.815Z,28.70
2017-05-23T09:01:37.166Z,28.70
2017-05-23T09:04:05.550Z,28.60
2017-05-23T09:06:33.891Z,28.20
2017-05-23T09:09:02.297Z,28.70
2017-05-23T09:11:30.654Z,29.00
2017-05-23T09:13:58.960Z,29.20
2017-05-23T09:16:27.341Z,29.50
2017-05-23T09:18:55.727Z,29.20
2017-05-23T09:21:24.110Z,28.90
2017-05-23T09:23:52.488Z,28.10
2017-05-23T09:26:26.422Z,27.30
2017-05-23T09:28:54.792Z,27.40
2017-05-23T09:31:23.158Z,27.30
2017-05-23T09:33:51.530Z,26.70
2017-05-23T09:36:19.839Z,26.70
2017-05-23T09:38:48.195Z,26.60
2017-05-23T09:41:16.570Z,26.60
2017-05-23T09:43:44.952Z,27.30
2017-05-23T09:46:13.259Z,27.80
2017-05-23T09:48:41.568Z,28.40
2017-05-23T09:51:09.871Z,28.30
2017-05-23T09:53:38.176Z,28.10
2017-05-23T09:56:06.514Z,27.70
2017-05-23T09:58:34.823Z,27.20
2017-05-23T10:01:03.206Z,26.50
2017-05-23T10:03:31.583Z,25.90
2017-05-23T10:05:59.895Z,25.90
2017-05-23T10:08:28.199Z,25.80
2017-05-23T10:10:56.524Z,25.90
2017-05-23T10:13:24.831Z,26.30
2017-05-23T10:15:53.137Z,26.50
2017-05-23T10:18:21.479Z,26.80
2017-05-23T10:20:49.838Z,27.00
2017-05-23T10:23:18.178Z,26.80
2017-05-23T10:25:46.598Z,26.70
2017-05-23T10:28:14.914Z,27.20
2017-05-23T10:30:43.227Z,27.20
2017-05-23T10:33:11.720Z,27.10
2017-05-23T10:35:40.057Z,26.80
2017-05-23T10:38:08.395Z,26.20
2017-05-23T10:40:36.762Z,25.70
2017-05-23T10:43:05.148Z,25.70
2017-05-23T10:45:33.525Z,26.00
2017-05-23T10:48:01.831Z,26.70
2017-05-23T10:50:30.191Z,27.60
2017-05-23T10:52:58.567Z,28.40
2017-05-23T10:55:26.868Z,28.00
2017-05-23T10:57:55.204Z,27.60
2017-05-23T11:00:23.514Z,26.80
2017-05-23T11:02:51.887Z,27.00
2017-05-23T11:05:20.220Z,26.50
2017-05-23T11:07:48.539Z,26.80
2017-05-23T11:10:16.920Z,27.70
2017-05-23T11:12:45.300Z,27.80
2017-05-23T11:15:13.626Z,28.20
2017-05-23T11:17:41.926Z,28.30
2017-05-23T11:20:10.279Z,28.60
2017-05-23T11:22:38.592Z,28.80
2017-05-23T11:25:06.898Z,29.00
2017-05-23T11:27:35.271Z,28.20
2017-05-23T11:30:03.575Z,28.10
2017-05-23T11:32:31.939Z,27.80
2017-05-23T11:35:00.247Z,27.50
2017-05-23T11:37:28.556Z,27.40
2017-05-23T11:39:56.884Z,27.40
2017-05-23T11:42:25.257Z,27.20
2017-05-23T11:44:53.621Z,27.10
2017-05-23T11:47:21.959Z,26.90
2017-05-23T11:49:50.285Z,26.90
2017-05-23T11:52:18.660Z,27.00
2017-05-23T11:54:47.040Z,27.30
2017-05-23T11:57:15.343Z,27.50
2017-05-23T11:59:43.651Z,27.40
2017-05-23T12:02:11.958Z,27.50
2017-05-23T12:04:40.263Z,27.30
2017-05-23T12:07:08.630Z,27.50
2017-05-23T12:09:36.936Z,27.60
2017-05-23T12:12:05.243Z,27.30
2017-05-23T12:14:33.608Z,27.30
2017-05-23T12:17:01.915Z,27.50
2017-05-23T12:19:30.338Z,27.40
2017-05-23T12:21:58.647Z,27.50
2017-05-23T12:24:26.963Z,27.30
2017-05-23T12:26:55.294Z,27.30
2017-05-23T12:29:23.642Z,26.80
2017-05-23T12:31:52.026Z,27.00
2017-05-23T12:34:20.335Z,27.00
2017-05-23T12:36:48.694Z,27.00
2017-05-23T12:39:17.017Z,26.80
2017-05-23T12:41:45.331Z,26.60
2017-05-23T12:44:13.668Z,26.30
2017-05-23T12:46:41.976Z,26.60
2017-05-23T12:49:10.320Z,26.60
2017-05-23T12:51:38.663Z,26.40
2017-05-23T12:54:07.032Z,26.30
2017-05-23T12:56:35.422Z,26.20
2017-05-23T12:59:03.800Z,26.20
2017-05-23T13:01:32.172Z,25.90
2017-05-23T13:04:00.554Z,25.80
2017-05-23T13:06:28.888Z,26.00
2017-05-23T13:08:57.207Z,26.40
2017-05-23T13:11:25.588Z,26.80
2017-05-23T13:13:53.975Z,26.80
2017-05-23T13:16:22.354Z,27.00
2017-05-23T13:18:50.670Z,27.00
2017-05-23T13:21:19.006Z,26.70
2017-05-23T13:23:47.328Z,26.60
2017-05-23T13:26:15.655Z,26.80
2017-05-23T13:28:43.995Z,26.60
2017-05-23T13:31:12.303Z,26.40
2017-05-23T13:33:40.639Z,26.20
2017-05-23T13:36:08.978Z,26.30
2017-05-23T13:38:37.323Z,26.00
2017-05-23T13:41:05.635Z,25.80
2017-05-23T13:43:33.938Z,25.80
2017-05-23T13:46:02.298Z,25.90
2017-05-23T13:48:30.618Z,25.90
2017-05-23T13:50:59.058Z,25.70
2017-05-23T13:53:27.364Z,25.60
2017-05-23T13:55:55.810Z,25.70
2017-05-23T13:58:24.191Z,25.90
2017-05-23T14:00:52.495Z,25.80
2017-05-23T14:03:20.855Z,25.70
2017-05-23T14:05:49.234Z,25.90
2017-05-23T14:08:17.607Z,25.90
2017-05-23T14:10:45.918Z,25.70
2017-05-23T14:13:14.271Z,25.50
2017-05-23T14:15:42.581Z,25.60
2017-05-23T14:18:10.931Z,25.90
2017-05-23T14:20:39.306Z,25.70
2017-05-23T14:23:07.625Z,25.50
2017-05-23T14:25:36.059Z,25.30
2017-05-23T14:28:04.365Z,25.20
2017-05-23T14:30:32.724Z,25.00
2017-05-23T14:33:01.110Z,24.90
2017-05-23T14:35:29.494Z,24.90
2017-05-23T14:37:57.871Z,25.20
2017-05-23T14:40:26.217Z,25.30
2017-05-23T14:42:54.523Z,25.50
2017-05-23T14:45:22.894Z,25.50
2017-05-23T14:47:51.226Z,25.40
2017-05-23T14:50:19.529Z,25.30
2017-05-23T14:52:47.861Z,25.30
2017-05-23T14:55:16.219Z,25.40
2017-05-23T14:57:44.609Z,25.30
2017-05-23T15:00:12.978Z,25.10
2017-05-23T15:02:41.360Z,25.00
2017-05-23T15:05:09.695Z,25.20
2017-05-23T15:07:38.011Z,25.70
2017-05-23T15:10:06.325Z,25.70
2017-05-23T15:12:34.680Z,25.70
2017-05-23T15:15:03.046Z,25.60
2017-05-23T15:17:31.430Z,25.30
2017-05-23T15:19:59.739Z,25.10
2017-05-23T15:22:28.053Z,25.20
2017-05-23T15:24:56.368Z,25.20
2017-05-23T15:27:24.744Z,25.20
2017-05-23T15:29:53.124Z,25.20
2017-05-23T15:32:21.435Z,25.60
2017-05-23T15:34:49.786Z,25.70
2017-05-23T15:37:18.092Z,25.70
2017-05-23T15:39:46.411Z,25.40
2017-05-23T15:42:14.715Z,25.20
2017-05-23T15:44:43.020Z,25.60
2017-05-23T15:47:11.378Z,25.30
2017-05-23T15:49:39.740Z,25.10
2017-05-23T15:52:08.078Z,24.80
2017-05-23T15:54:36.414Z,24.70
2017-05-23T15:57:04.741Z,24.50
2017-05-23T15:59:33.087Z,24.50
2017-05-23T16:02:01.400Z,24.10
2017-05-23T16:04:29.711Z,24.10
2017-05-23T16:06:58.111Z,23.90
2017-05-23T16:09:26.458Z,23.80
2017-05-23T16:11:54.862Z,23.70
2017-05-23T16:14:23.249Z,23.40
2017-05-23T16:16:51.635Z,23.20
2017-05-23T16:19:19.955Z,23.10
2017-05-23T16:21:48.268Z,23.00
2017-05-23T16:24:16.587Z,22.90
2017-05-23T16:26:44.949Z,22.90
2017-05-23T16:29:13.327Z,22.70
2017-05-23T16:31:41.687Z,22.70
2017-05-23T16:34:10.081Z,22.30
2017-05-23T16:36:38.397Z,22.30
2017-05-23T16:39:06.745Z,22.50
2017-05-23T16:41:35.116Z,22.50
2017-05-23T16:44:03.431Z,22.30
2017-05-23T16:46:31.743Z,22.40
2017-05-23T16:49:00.071Z,22.30
2017-05-23T16:51:28.386Z,22.30
2017-05-23T16:53:56.743Z,22.00
2017-05-23T16:56:25.051Z,21.80
2017-05-23T16:58:53.356Z,21.50
2017-05-23T17:01:21.663Z,21.50
2017-05-23T17:03:49.975Z,21.50
2017-05-23T17:06:18.285Z,21.40
2017-05-23T17:08:46.683Z,21.50
2017-05-23T17:11:15.068Z,21.40
2017-05-23T17:13:43.387Z,21.20
2017-05-23T17:16:11.827Z,21.10
2017-05-23T17:18:40.213Z,20.90
2017-05-23T17:21:08.523Z,20.90
2017-05-23T17:23:36.831Z,20.80
2017-05-23T17:26:05.238Z,20.80
2017-05-23T17:28:33.631Z,20.60
2017-05-23T17:31:01.941Z,20.50
2017-05-23T17:33:30.383Z,20.60
2017-05-23T17:35:58.704Z,20.50
2017-05-23T17:38:27.043Z,20.20
2017-05-23T17:40:55.415Z,20.20
2017-05-23T17:43:23.799Z,20.00
2017-05-23T17:45:52.175Z,20.00
2017-05-23T17:48:20.489Z,19.90
2017-05-23T17:50:48.835Z,19.80
2017-05-23T17:53:17.145Z,19.70
2017-05-23T17:55:45.490Z,19.40
2017-05-23T17:58:13.803Z,19.50
2017-05-23T18:00:42.151Z,19.30
2017-05-23T18:03:10.483Z,19.20
2017-05-23T18:05:38.837Z,19.10
2017-05-23T18:08:07.163Z,18.80
2017-05-23T18:10:35.499Z,18.80
2017-05-23T18:13:03.846Z,18.80
2017-05-23T18:15:32.166Z,18.60
2017-05-23T18:18:00.547Z,18.40
2017-05-23T18:20:28.887Z,18.30
2017-05-23T18:22:57.236Z,18.40
2017-05-23T18:25:25.661Z,18.40
2017-05-23T18:27:54.026Z,18.20
2017-05-23T18:30:22.408Z,18.10
2017-05-23T18:32:50.777Z,18.00
2017-05-23T18:35:19.123Z,18.00
2017-05-23T18:37:47.447Z,18.00
2017-05-23T18:40:15.778Z,18.00
2017-05-23T18:42:44.105Z,17.90
2017-05-23T18:45:12.458Z,17.90
2017-05-23T18:47:40.804Z,17.70
2017-05-23T18:50:09.140Z,17.70
2017-05-23T18:52:37.457Z,17.70
2017-05-23T18:55:05.767Z,17.50
2017-05-23T18:57:34.103Z,17.40
2017-05-23T19:00:02.475Z,17.40
2017-05-23T19:02:30.799Z,17.30
2017-05-23T19:04:59.110Z,17.20
2017-05-23T19:07:27.422Z,17.20
2017-05-23T19:09:55.732Z,17.10
2017-05-23T19:12:24.119Z,17.00
2017-05-23T19:14:52.636Z,16.80
2017-05-23T19:17:21.012Z,16.80
2017-05-23T19:19:49.327Z,16.60
2017-05-23T19:22:17.670Z,16.50
2017-05-23T19:24:46.042Z,16.40
2017-05-23T19:27:14.362Z,16.30
2017-05-23T19:29:42.708Z,16.30
2017-05-23T19:32:11.018Z,16.20
2017-05-23T19:34:39.358Z,16.00
2017-05-23T19:37:07.742Z,16.00
2017-05-23T19:39:36.120Z,15.90
2017-05-23T19:42:04.499Z,15.90
2017-05-23T19:44:32.883Z,15.80
2017-05-23T19:47:01.279Z,15.80
2017-05-23T19:49:29.646Z,15.80
2017-05-23T19:51:57.955Z,15.80
2017-05-23T19:54:26.270Z,15.70
2017-05-23T19:56:54.583Z,15.50
2017-05-23T19:59:22.984Z,15.40
2017-05-23T20:01:51.428Z,15.30
2017-05-23T20:04:20.628Z,15.30
2017-05-23T20:06:49.022Z,15.20
2017-05-23T20:09:17.335Z,15.20
2017-05-23T20:11:45.664Z,15.10
2017-05-23T20:14:13.975Z,15.10
2017-05-23T20:16:42.328Z,15.00
2017-05-23T20:19:10.878Z,15.00
2017-05-23T20:21:39.203Z,14.90
2017-05-23T20:24:07.514Z,14.90
2017-05-23T20:26:35.824Z,14.80
2017-05-23T20:29:04.207Z,14.70
2017-05-23T20:31:32.610Z,14.70
2017-05-23T20:34:00.949Z,14.70
2017-05-23T20:36:29.284Z,14.60
2017-05-23T20:38:57.664Z,14.60
2017-05-23T20:41:26.028Z,14.50
2017-05-23T20:43:54.416Z,14.50
2017-05-23T20:46:22.779Z,14.40
2017-05-23T20:48:51.154Z,14.40
2017-05-23T20:51:19.471Z,14.40
2017-05-23T20:53:47.789Z,14.30
2017-05-23T20:56:16.120Z,14.30
2017-05-23T20:58:44.433Z,14.30
2017-05-23T21:01:12.876Z,14.30
2017-05-23T21:03:41.264Z,14.20
2017-05-23T21:06:09.639Z,14.20
2017-05-23T21:08:37.971Z,14.10
2017-05-23T21:11:06.289Z,14.10
2017-05-23T21:13:34.667Z,14.10
2017-05-23T21:16:02.972Z,14.20
2017-05-23T21:18:31.310Z,14.10
2017-05-23T21:20:59.670Z,14.10
2017-05-23T21:23:28.087Z,14.00
2017-05-23T21:25:56.459Z,14.00
2017-05-23T21:28:26.358Z,13.90
2017-05-23T21:30:54.750Z,13.90
2017-05-23T21:33:23.142Z,13.90
2017-05-23T21:35:51.521Z,13.80
2017-05-23T21:38:19.858Z,13.80
2017-05-23T21:40:48.183Z,13.90
2017-05-23T21:43:16.656Z,13.90
2017-05-23T21:45:45.010Z,13.80
2017-05-23T21:48:13.347Z,13.90
2017-05-23T21:50:41.683Z,13.80
2017-05-23T21:53:10.071Z,13.70
2017-05-23T21:55:38.420Z,13.80
2017-05-23T21:58:06.739Z,13.80
2017-05-23T22:00:35.085Z,13.70
2017-05-23T22:03:03.391Z,13.70
2017-05-23T22:05:31.714Z,13.50
2017-05-23T22:08:00.051Z,13.50
2017-05-23T22:10:28.369Z,13.50
2017-05-23T22:12:56.811Z,13.50
2017-05-23T22:15:25.231Z,13.50
2017-05-23T22:17:53.672Z,13.40
2017-05-23T22:20:22.155Z,13.40
2017-05-23T22:22:50.486Z,13.30
2017-05-23T22:25:18.806Z,13.40
2017-05-23T22:27:47.133Z,13.40
2017-05-23T22:30:15.470Z,13.40
2017-05-23T22:32:43.845Z,13.30
2017-05-23T22:35:12.223Z,13.30
2017-05-23T22:37:40.614Z,13.30
2017-05-23T22:40:08.942Z,13.30
2017-05-23T22:42:37.264Z,13.20
2017-05-23T22:45:05.643Z,13.20
2017-05-23T22:47:34.022Z,13.20
2017-05-23T22:50:02.410Z,13.20
2017-05-23T22:52:30.795Z,13.20
2017-05-23T22:54:59.176Z,13.10
2017-05-23T22:57:27.483Z,13.10
2017-05-23T22:59:55.803Z,13.10
2017-05-23T23:02:24.115Z,13.10
2017-05-23T23:04:52.435Z,13.10
2017-05-23T23:07:20.754Z,13.10
2017-05-23T23:09:49.142Z,13.00
2017-05-23T23:12:17.514Z,13.00
2017-05-23T23:14:45.899Z,12.90
2017-05-23T23:17:14.284Z,12.90
2017-05-23T23:19:42.656Z,12.90
2017-05-23T23:22:11.034Z,12.90
2017-05-23T23:24:39.415Z,12.80
2017-05-23T23:27:07.802Z,12.80
2017-05-23T23:29:36.176Z,12.80
2017-05-23T23:32:04.560Z,12.80
2017-05-23T23:34:32.931Z,12.70
2017-05-23T23:37:01.316Z,12.80
2017-05-23T23:39:29.698Z,12.80
2017-05-23T23:41:58.076Z,12.80
2017-05-23T23:44:26.387Z,12.70
2017-05-23T23:46:54.731Z,12.70
2017-05-23T23:49:23.045Z,12.70
2017-05-23T23:51:51.391Z,12.70
2017-05-23T23:54:19.724Z,12.80
2017-05-23T23:56:48.026Z,12.60
2017-05-23T23:59:16.450Z,12.70
